sensor_id;sensor_type;location;lat;lon;timestamp;P1;durP1;ratioP1;P2;durP2;ratioP2
22470;SDS011;11402;51.374;6.594;2023-05-23T00:01:01;15.93;;;12.25;;
22470;SDS011;11402;51.374;6.594;2023-05-23T00:03:27;14.20;;;11.90;;
22470;SDS011;11402;51.374;6.594;2023-05-23T00:05:55;16.45;;;11.88;;
22470;SDS011;11402;51.374;6.594;2023-05-23T00:08:21;16.98;;;12.65;;
22470;SDS011;11402;51.374;6.594;2023-05-23T00:10:46;15.77;;;12.80;;
22470;SDS011;11402;51.374;6.594;2023-05-23T00:13:12;15.13;;;10.05;;
22470;SDS011;11402;51.374;6.594;2023-05-23T00:15:38;11.05;;;7.97;;
22470;SDS011;11402;51.374;6.594;2023-05-23T00:18:08;9.70;;;7.55;;
22470;SDS011;11402;51.374;6.594;2023-05-23T00:20:37;9.00;;;6.50;;
22470;SDS011;11402;51.374;6.594;2023-05-23T00:23:05;9.45;;;5.72;;
22470;SDS011;11402;51.374;6.594;2023-05-23T00:25:31;6.95;;;5.82;;
22470;SDS011;11402;51.374;6.594;2023-05-23T00:28:00;6.40;;;5.13;;
22470;SDS011;11402;51.374;6.594;2023-05-23T00:30:27;7.30;;;4.90;;
22470;SDS011;11402;51.374;6.594;2023-05-23T00:32:53;6.43;;;4.80;;
22470;SDS011;11402;51.374;6.594;2023-05-23T00:35:19;6.40;;;4.93;;
22470;SDS011;11402;51.374;6.594;2023-05-23T00:37:48;6.15;;;4.95;;
22470;SDS011;11402;51.374;6.594;2023-05-23T00:40:16;6.13;;;4.57;;
22470;SDS011;11402;51.374;6.594;2023-05-23T00:42:45;5.88;;;4.97;;
22470;SDS011;11402;51.374;6.594;2023-05-23T00:45:11;6.70;;;5.03;;
22470;SDS011;11402;51.374;6.594;2023-05-23T00:47:38;7.72;;;5.22;;
22470;SDS011;11402;51.374;6.594;2023-05-23T00:50:08;7.55;;;5.10;;
22470;SDS011;11402;51.374;6.594;2023-05-23T00:52:36;8.45;;;5.00;;
22470;SDS011;11402;51.374;6.594;2023-05-23T00:55:03;7.70;;;5.28;;
22470;SDS011;11402;51.374;6.594;2023-05-23T00:57:30;6.50;;;5.15;;
22470;SDS011;11402;51.374;6.594;2023-05-23T00:59:58;8.18;;;6.15;;
22470;SDS011;11402;51.374;6.594;2023-05-23T01:02:25;9.93;;;5.97;;
22470;SDS011;11402;51.374;6.594;2023-05-23T01:04:51;7.30;;;5.80;;
22470;SDS011;11402;51.374;6.594;2023-05-23T01:07:19;11.57;;;6.47;;
22470;SDS011;11402;51.374;6.594;2023-05-23T01:09:45;8.30;;;6.97;;
22470;SDS011;11402;51.374;6.594;2023-05-23T01:15:03;7.65;;;6.03;;
22470;SDS011;11402;51.374;6.594;2023-05-23T01:23:22;7.22;;;5.72;;
22470;SDS011;11402;51.374;6.594;2023-05-23T01:29:23;7.53;;;6.13;;
22470;SDS011;11402;51.374;6.594;2023-05-23T01:31:53;10.00;;;5.93;;
22470;SDS011;11402;51.374;6.594;2023-05-23T01:34:21;8.07;;;6.45;;
22470;SDS011;11402;51.374;6.594;2023-05-23T01:36:48;7.45;;;6.05;;
22470;SDS011;11402;51.374;6.594;2023-05-23T01:39:17;8.57;;;5.75;;
22470;SDS011;11402;51.374;6.594;2023-05-23T01:41:43;8.23;;;6.10;;
22470;SDS011;11402;51.374;6.594;2023-05-23T01:44:09;10.05;;;5.93;;
22470;SDS011;11402;51.374;6.594;2023-05-23T01:46:34;6.30;;;5.40;;
22470;SDS011;11402;51.374;6.594;2023-05-23T01:49:03;7.90;;;6.10;;
22470;SDS011;11402;51.374;6.594;2023-05-23T01:51:31;10.43;;;5.65;;
22470;SDS011;11402;51.374;6.594;2023-05-23T01:53:58;10.38;;;6.20;;
22470;SDS011;11402;51.374;6.594;2023-05-23T01:56:24;9.50;;;6.85;;
22470;SDS011;11402;51.374;6.594;2023-05-23T01:58:51;9.20;;;6.47;;
22470;SDS011;11402;51.374;6.594;2023-05-23T02:01:18;10.07;;;7.43;;
22470;SDS011;11402;51.374;6.594;2023-05-23T02:03:43;11.88;;;6.97;;
22470;SDS011;11402;51.374;6.594;2023-05-23T02:06:09;8.35;;;7.03;;
22470;SDS011;11402;51.374;6.594;2023-05-23T02:08:35;10.90;;;6.90;;
22470;SDS011;11402;51.374;6.594;2023-05-23T02:11:00;9.88;;;6.90;;
22470;SDS011;11402;51.374;6.594;2023-05-23T02:13:26;10.95;;;7.32;;
22470;SDS011;11402;51.374;6.594;2023-05-23T02:15:51;9.35;;;7.38;;
22470;SDS011;11402;51.374;6.594;2023-05-23T02:18:17;11.50;;;7.78;;
22470;SDS011;11402;51.374;6.594;2023-05-23T02:20:43;12.80;;;7.90;;
22470;SDS011;11402;51.374;6.594;2023-05-23T02:23:08;8.52;;;7.15;;
22470;SDS011;11402;51.374;6.594;2023-05-23T02:25:34;12.68;;;7.40;;
22470;SDS011;11402;51.374;6.594;2023-05-23T02:27:59;12.15;;;8.43;;
22470;SDS011;11402;51.374;6.594;2023-05-23T02:30:25;12.95;;;8.30;;
22470;SDS011;11402;51.374;6.594;2023-05-23T02:32:51;11.75;;;7.82;;
22470;SDS011;11402;51.374;6.594;2023-05-23T02:35:17;13.90;;;8.25;;
22470;SDS011;11402;51.374;6.594;2023-05-23T02:37:42;13.23;;;8.68;;
22470;SDS011;11402;51.374;6.594;2023-05-23T02:40:08;14.52;;;9.05;;
22470;SDS011;11402;51.374;6.594;2023-05-23T02:42:34;11.85;;;8.55;;
22470;SDS011;11402;51.374;6.594;2023-05-23T02:45:00;10.27;;;8.65;;
22470;SDS011;11402;51.374;6.594;2023-05-23T02:47:25;15.90;;;9.35;;
22470;SDS011;11402;51.374;6.594;2023-05-23T02:49:51;16.45;;;8.88;;
22470;SDS011;11402;51.374;6.594;2023-05-23T02:52:17;16.08;;;9.07;;
22470;SDS011;11402;51.374;6.594;2023-05-23T02:54:42;15.02;;;10.13;;
22470;SDS011;11402;51.374;6.594;2023-05-23T02:57:08;12.73;;;8.73;;
22470;SDS011;11402;51.374;6.594;2023-05-23T02:59:34;14.18;;;7.80;;
22470;SDS011;11402;51.374;6.594;2023-05-23T03:02:00;13.88;;;8.63;;
22470;SDS011;11402;51.374;6.594;2023-05-23T03:04:26;12.57;;;7.82;;
22470;SDS011;11402;51.374;6.594;2023-05-23T03:06:51;12.07;;;7.70;;
22470;SDS011;11402;51.374;6.594;2023-05-23T03:09:18;13.85;;;8.02;;
22470;SDS011;11402;51.374;6.594;2023-05-23T03:11:44;14.57;;;7.70;;
22470;SDS011;11402;51.374;6.594;2023-05-23T03:14:09;12.30;;;7.60;;
22470;SDS011;11402;51.374;6.594;2023-05-23T03:16:35;11.07;;;7.40;;
22470;SDS011;11402;51.374;6.594;2023-05-23T03:19:01;12.80;;;8.00;;
22470;SDS011;11402;51.374;6.594;2023-05-23T03:21:26;11.10;;;7.03;;
22470;SDS011;11402;51.374;6.594;2023-05-23T03:23:52;13.02;;;7.95;;
22470;SDS011;11402;51.374;6.594;2023-05-23T03:26:17;11.27;;;7.38;;
22470;SDS011;11402;51.374;6.594;2023-05-23T03:28:43;12.85;;;7.80;;
22470;SDS011;11402;51.374;6.594;2023-05-23T03:31:09;10.75;;;7.15;;
22470;SDS011;11402;51.374;6.594;2023-05-23T03:33:34;13.93;;;7.57;;
22470;SDS011;11402;51.374;6.594;2023-05-23T03:36:00;13.70;;;7.35;;
22470;SDS011;11402;51.374;6.594;2023-05-23T03:38:26;15.40;;;8.32;;
22470;SDS011;11402;51.374;6.594;2023-05-23T03:40:52;10.32;;;7.55;;
22470;SDS011;11402;51.374;6.594;2023-05-23T03:43:17;15.57;;;8.55;;
22470;SDS011;11402;51.374;6.594;2023-05-23T03:45:43;14.68;;;8.70;;
22470;SDS011;11402;51.374;6.594;2023-05-23T03:48:09;13.73;;;8.50;;
22470;SDS011;11402;51.374;6.594;2023-05-23T03:50:35;11.60;;;7.65;;
22470;SDS011;11402;51.374;6.594;2023-05-23T03:53:00;15.98;;;9.07;;
22470;SDS011;11402;51.374;6.594;2023-05-23T03:55:26;16.00;;;8.07;;
22470;SDS011;11402;51.374;6.594;2023-05-23T03:57:51;15.20;;;8.60;;
22470;SDS011;11402;51.374;6.594;2023-05-23T04:00:17;12.55;;;8.20;;
22470;SDS011;11402;51.374;6.594;2023-05-23T04:02:43;12.57;;;8.05;;
22470;SDS011;11402;51.374;6.594;2023-05-23T04:05:10;14.32;;;8.70;;
22470;SDS011;11402;51.374;6.594;2023-05-23T04:07:38;14.57;;;8.07;;
22470;SDS011;11402;51.374;6.594;2023-05-23T04:10:05;13.65;;;8.43;;
22470;SDS011;11402;51.374;6.594;2023-05-23T04:12:32;12.70;;;8.30;;
22470;SDS011;11402;51.374;6.594;2023-05-23T04:14:58;13.60;;;8.50;;
22470;SDS011;11402;51.374;6.594;2023-05-23T04:17:24;11.40;;;8.13;;
22470;SDS011;11402;51.374;6.594;2023-05-23T04:19:50;11.23;;;8.43;;
22470;SDS011;11402;51.374;6.594;2023-05-23T04:22:16;14.13;;;8.40;;
22470;SDS011;11402;51.374;6.594;2023-05-23T04:24:41;15.68;;;7.95;;
22470;SDS011;11402;51.374;6.594;2023-05-23T04:27:07;11.73;;;8.73;;
22470;SDS011;11402;51.374;6.594;2023-05-23T04:29:33;12.88;;;8.93;;
22470;SDS011;11402;51.374;6.594;2023-05-23T04:31:59;13.95;;;9.15;;
22470;SDS011;11402;51.374;6.594;2023-05-23T04:34:26;13.38;;;9.60;;
22470;SDS011;11402;51.374;6.594;2023-05-23T04:36:51;14.23;;;8.68;;
22470;SDS011;11402;51.374;6.594;2023-05-23T04:39:18;16.85;;;9.43;;
22470;SDS011;11402;51.374;6.594;2023-05-23T04:41:44;17.95;;;10.25;;
22470;SDS011;11402;51.374;6.594;2023-05-23T04:44:10;15.00;;;9.43;;
22470;SDS011;11402;51.374;6.594;2023-05-23T04:46:36;12.85;;;9.32;;
22470;SDS011;11402;51.374;6.594;2023-05-23T04:49:06;18.10;;;10.00;;
22470;SDS011;11402;51.374;6.594;2023-05-23T04:51:32;13.55;;;9.63;;
22470;SDS011;11402;51.374;6.594;2023-05-23T04:53:57;16.90;;;9.57;;
22470;SDS011;11402;51.374;6.594;2023-05-23T04:56:23;15.75;;;10.57;;
22470;SDS011;11402;51.374;6.594;2023-05-23T04:58:52;15.77;;;10.02;;
22470;SDS011;11402;51.374;6.594;2023-05-23T05:01:17;15.20;;;9.77;;
22470;SDS011;11402;51.374;6.594;2023-05-23T05:03:43;19.95;;;10.18;;
22470;SDS011;11402;51.374;6.594;2023-05-23T05:06:09;16.05;;;10.35;;
22470;SDS011;11402;51.374;6.594;2023-05-23T05:08:34;14.48;;;9.73;;
22470;SDS011;11402;51.374;6.594;2023-05-23T05:11:00;19.45;;;10.10;;
22470;SDS011;11402;51.374;6.594;2023-05-23T05:13:26;14.45;;;9.75;;
22470;SDS011;11402;51.374;6.594;2023-05-23T05:15:52;17.60;;;10.05;;
22470;SDS011;11402;51.374;6.594;2023-05-23T05:18:17;18.67;;;10.75;;
22470;SDS011;11402;51.374;6.594;2023-05-23T05:20:43;16.85;;;10.25;;
22470;SDS011;11402;51.374;6.594;2023-05-23T05:23:09;15.90;;;10.35;;
22470;SDS011;11402;51.374;6.594;2023-05-23T05:25:35;16.60;;;10.18;;
22470;SDS011;11402;51.374;6.594;2023-05-23T05:28:02;15.20;;;8.77;;
22470;SDS011;11402;51.374;6.594;2023-05-23T05:30:30;13.90;;;9.07;;
22470;SDS011;11402;51.374;6.594;2023-05-23T05:33:02;16.13;;;9.02;;
22470;SDS011;11402;51.374;6.594;2023-05-23T05:35:31;13.90;;;8.65;;
22470;SDS011;11402;51.374;6.594;2023-05-23T05:37:57;15.00;;;8.90;;
22470;SDS011;11402;51.374;6.594;2023-05-23T05:40:23;13.25;;;8.65;;
22470;SDS011;11402;51.374;6.594;2023-05-23T05:42:49;11.82;;;8.25;;
22470;SDS011;11402;51.374;6.594;2023-05-23T05:45:15;11.32;;;7.30;;
22470;SDS011;11402;51.374;6.594;2023-05-23T05:47:41;13.38;;;7.15;;
22470;SDS011;11402;51.374;6.594;2023-05-23T05:50:07;9.40;;;6.38;;
22470;SDS011;11402;51.374;6.594;2023-05-23T05:52:34;9.88;;;6.47;;
22470;SDS011;11402;51.374;6.594;2023-05-23T05:55:03;11.13;;;6.10;;
22470;SDS011;11402;51.374;6.594;2023-05-23T05:57:32;11.70;;;6.28;;
22470;SDS011;11402;51.374;6.594;2023-05-23T05:59:58;10.07;;;6.18;;
22470;SDS011;11402;51.374;6.594;2023-05-23T06:02:24;10.25;;;6.72;;
22470;SDS011;11402;51.374;6.594;2023-05-23T06:04:50;9.63;;;6.53;;
22470;SDS011;11402;51.374;6.594;2023-05-23T06:07:16;10.85;;;6.38;;
22470;SDS011;11402;51.374;6.594;2023-05-23T06:09:42;8.85;;;6.80;;
22470;SDS011;11402;51.374;6.594;2023-05-23T06:12:08;10.93;;;6.60;;
22470;SDS011;11402;51.374;6.594;2023-05-23T06:14:34;11.77;;;7.15;;
22470;SDS011;11402;51.374;6.594;2023-05-23T06:16:59;12.48;;;7.18;;
22470;SDS011;11402;51.374;6.594;2023-05-23T06:19:26;13.43;;;7.22;;
22470;SDS011;11402;51.374;6.594;2023-05-23T06:21:52;11.85;;;7.35;;
22470;SDS011;11402;51.374;6.594;2023-05-23T06:24:18;13.20;;;7.35;;
22470;SDS011;11402;51.374;6.594;2023-05-23T06:26:43;12.63;;;6.45;;
22470;SDS011;11402;51.374;6.594;2023-05-23T06:29:09;13.38;;;6.93;;
22470;SDS011;11402;51.374;6.594;2023-05-23T06:31:34;13.40;;;7.50;;
22470;SDS011;11402;51.374;6.594;2023-05-23T06:34:00;11.65;;;7.43;;
22470;SDS011;11402;51.374;6.594;2023-05-23T06:36:25;10.10;;;7.15;;
22470;SDS011;11402;51.374;6.594;2023-05-23T06:38:51;12.07;;;6.93;;
22470;SDS011;11402;51.374;6.594;2023-05-23T06:41:16;11.85;;;7.53;;
22470;SDS011;11402;51.374;6.594;2023-05-23T06:43:42;13.77;;;7.13;;
22470;SDS011;11402;51.374;6.594;2023-05-23T06:46:08;15.18;;;7.15;;
22470;SDS011;11402;51.374;6.594;2023-05-23T06:48:33;13.23;;;7.10;;
22470;SDS011;11402;51.374;6.594;2023-05-23T06:50:59;12.02;;;7.35;;
22470;SDS011;11402;51.374;6.594;2023-05-23T06:53:24;14.13;;;7.30;;
22470;SDS011;11402;51.374;6.594;2023-05-23T06:55:50;13.40;;;7.03;;
22470;SDS011;11402;51.374;6.594;2023-05-23T06:58:16;12.95;;;7.40;;
22470;SDS011;11402;51.374;6.594;2023-05-23T07:00:41;12.55;;;7.60;;
22470;SDS011;11402;51.374;6.594;2023-05-23T07:03:07;13.40;;;7.90;;
22470;SDS011;11402;51.374;6.594;2023-05-23T07:05:32;13.13;;;7.13;;
22470;SDS011;11402;51.374;6.594;2023-05-23T07:08:00;12.10;;;7.90;;
22470;SDS011;11402;51.374;6.594;2023-05-23T07:10:26;14.52;;;7.43;;
22470;SDS011;11402;51.374;6.594;2023-05-23T07:12:51;16.50;;;8.77;;
22470;SDS011;11402;51.374;6.594;2023-05-23T07:15:17;18.90;;;8.60;;
22470;SDS011;11402;51.374;6.594;2023-05-23T07:17:42;15.57;;;8.15;;
22470;SDS011;11402;51.374;6.594;2023-05-23T07:20:08;14.73;;;8.13;;
22470;SDS011;11402;51.374;6.594;2023-05-23T07:22:34;16.35;;;8.20;;
22470;SDS011;11402;51.374;6.594;2023-05-23T07:25:00;18.58;;;8.50;;
22470;SDS011;11402;51.374;6.594;2023-05-23T07:27:26;18.98;;;9.02;;
22470;SDS011;11402;51.374;6.594;2023-05-23T07:29:51;19.33;;;9.18;;
22470;SDS011;11402;51.374;6.594;2023-05-23T07:32:17;22.63;;;9.25;;
22470;SDS011;11402;51.374;6.594;2023-05-23T07:34:43;17.95;;;9.10;;
22470;SDS011;11402;51.374;6.594;2023-05-23T07:37:08;24.70;;;9.75;;
22470;SDS011;11402;51.374;6.594;2023-05-23T07:39:34;22.42;;;9.38;;
22470;SDS011;11402;51.374;6.594;2023-05-23T07:41:59;23.80;;;10.05;;
22470;SDS011;11402;51.374;6.594;2023-05-23T07:44:25;22.23;;;9.85;;
22470;SDS011;11402;51.374;6.594;2023-05-23T07:46:50;26.58;;;9.77;;
22470;SDS011;11402;51.374;6.594;2023-05-23T07:49:16;20.85;;;9.88;;
22470;SDS011;11402;51.374;6.594;2023-05-23T07:51:42;23.85;;;9.80;;
22470;SDS011;11402;51.374;6.594;2023-05-23T07:54:07;23.83;;;10.52;;
22470;SDS011;11402;51.374;6.594;2023-05-23T07:56:33;27.63;;;10.43;;
22470;SDS011;11402;51.374;6.594;2023-05-23T07:58:58;20.15;;;9.43;;
22470;SDS011;11402;51.374;6.594;2023-05-23T08:01:24;25.00;;;10.85;;
22470;SDS011;11402;51.374;6.594;2023-05-23T08:03:50;27.10;;;10.25;;
22470;SDS011;11402;51.374;6.594;2023-05-23T08:06:16;14.35;;;8.68;;
22470;SDS011;11402;51.374;6.594;2023-05-23T08:08:41;19.73;;;7.70;;
22470;SDS011;11402;51.374;6.594;2023-05-23T08:11:07;19.00;;;8.23;;
22470;SDS011;11402;51.374;6.594;2023-05-23T08:13:33;18.00;;;8.70;;
22470;SDS011;11402;51.374;6.594;2023-05-23T08:15:59;22.13;;;8.80;;
22470;SDS011;11402;51.374;6.594;2023-05-23T08:18:25;21.83;;;7.97;;
22470;SDS011;11402;51.374;6.594;2023-05-23T08:20:50;18.85;;;7.60;;
22470;SDS011;11402;51.374;6.594;2023-05-23T08:23:16;18.73;;;7.95;;
22470;SDS011;11402;51.374;6.594;2023-05-23T08:25:42;20.90;;;8.13;;
22470;SDS011;11402;51.374;6.594;2023-05-23T08:28:07;21.08;;;7.60;;
22470;SDS011;11402;51.374;6.594;2023-05-23T08:30:33;15.40;;;7.13;;
22470;SDS011;11402;51.374;6.594;2023-05-23T08:32:59;16.80;;;7.65;;
22470;SDS011;11402;51.374;6.594;2023-05-23T08:35:28;17.05;;;7.50;;
22470;SDS011;11402;51.374;6.594;2023-05-23T08:37:58;17.42;;;7.13;;
22470;SDS011;11402;51.374;6.594;2023-05-23T08:40:26;21.60;;;8.05;;
22470;SDS011;11402;51.374;6.594;2023-05-23T08:42:55;19.25;;;8.07;;
22470;SDS011;11402;51.374;6.594;2023-05-23T08:45:21;21.52;;;8.38;;
22470;SDS011;11402;51.374;6.594;2023-05-23T08:47:47;18.15;;;7.90;;
22470;SDS011;11402;51.374;6.594;2023-05-23T08:50:16;17.13;;;7.50;;
22470;SDS011;11402;51.374;6.594;2023-05-23T08:52:47;13.45;;;7.60;;
22470;SDS011;11402;51.374;6.594;2023-05-23T08:55:16;15.00;;;7.13;;
22470;SDS011;11402;51.374;6.594;2023-05-23T08:57:42;15.95;;;7.65;;
22470;SDS011;11402;51.374;6.594;2023-05-23T09:00:11;17.88;;;7.45;;
22470;SDS011;11402;51.374;6.594;2023-05-23T09:05:08;14.15;;;7.60;;
22470;SDS011;11402;51.374;6.594;2023-05-23T09:07:34;14.38;;;7.65;;
22470;SDS011;11402;51.374;6.594;2023-05-23T09:10:00;13.77;;;6.05;;
22470;SDS011;11402;51.374;6.594;2023-05-23T09:12:30;14.18;;;6.13;;
22470;SDS011;11402;51.374;6.594;2023-05-23T09:14:57;13.30;;;6.45;;
22470;SDS011;11402;51.374;6.594;2023-05-23T09:17:23;12.40;;;6.38;;
22470;SDS011;11402;51.374;6.594;2023-05-23T09:19:48;13.55;;;7.03;;
22470;SDS011;11402;51.374;6.594;2023-05-23T09:22:15;12.23;;;6.22;;
22470;SDS011;11402;51.374;6.594;2023-05-23T09:24:40;14.65;;;6.55;;
22470;SDS011;11402;51.374;6.594;2023-05-23T09:27:08;14.93;;;6.15;;
22470;SDS011;11402;51.374;6.594;2023-05-23T09:29:37;12.27;;;6.25;;
22470;SDS011;11402;51.374;6.594;2023-05-23T09:32:18;17.63;;;6.78;;
22470;SDS011;11402;51.374;6.594;2023-05-23T09:34:55;13.77;;;5.85;;
22470;SDS011;11402;51.374;6.594;2023-05-23T09:37:38;14.90;;;6.75;;
22470;SDS011;11402;51.374;6.594;2023-05-23T09:40:08;13.93;;;6.28;;
22470;SDS011;11402;51.374;6.594;2023-05-23T09:42:35;15.90;;;6.63;;
22470;SDS011;11402;51.374;6.594;2023-05-23T09:45:06;15.13;;;5.90;;
22470;SDS011;11402;51.374;6.594;2023-05-23T09:47:32;12.18;;;6.68;;
22470;SDS011;11402;51.374;6.594;2023-05-23T09:49:58;12.32;;;6.13;;
22470;SDS011;11402;51.374;6.594;2023-05-23T09:52:23;10.95;;;6.00;;
22470;SDS011;11402;51.374;6.594;2023-05-23T09:54:49;15.35;;;6.30;;
22470;SDS011;11402;51.374;6.594;2023-05-23T09:57:15;11.60;;;6.05;;
22470;SDS011;11402;51.374;6.594;2023-05-23T09:59:41;12.13;;;5.90;;
22470;SDS011;11402;51.374;6.594;2023-05-23T10:02:15;13.13;;;6.03;;
22470;SDS011;11402;51.374;6.594;2023-05-23T10:04:45;11.88;;;5.75;;
22470;SDS011;11402;51.374;6.594;2023-05-23T10:07:12;12.05;;;6.13;;
22470;SDS011;11402;51.374;6.594;2023-05-23T10:09:42;12.18;;;5.75;;
22470;SDS011;11402;51.374;6.594;2023-05-23T10:15:03;10.02;;;5.43;;
22470;SDS011;11402;51.374;6.594;2023-05-23T10:20:27;13.07;;;5.40;;
22470;SDS011;11402;51.374;6.594;2023-05-23T10:22:56;12.65;;;6.13;;
22470;SDS011;11402;51.374;6.594;2023-05-23T10:25:26;10.25;;;5.22;;
22470;SDS011;11402;51.374;6.594;2023-05-23T10:27:56;13.07;;;5.45;;
22470;SDS011;11402;51.374;6.594;2023-05-23T10:30:23;13.63;;;5.15;;
22470;SDS011;11402;51.374;6.594;2023-05-23T10:32:53;12.85;;;5.13;;
22470;SDS011;11402;51.374;6.594;2023-05-23T10:41:20;10.35;;;5.05;;
22470;SDS011;11402;51.374;6.594;2023-05-23T10:46:53;12.02;;;4.47;;
22470;SDS011;11402;51.374;6.594;2023-05-23T10:49:22;11.45;;;4.75;;
22470;SDS011;11402;51.374;6.594;2023-05-23T10:52:12;10.52;;;4.78;;
22470;SDS011;11402;51.374;6.594;2023-05-23T10:54:44;14.93;;;5.13;;
22470;SDS011;11402;51.374;6.594;2023-05-23T10:57:10;9.10;;;4.68;;
22470;SDS011;11402;51.374;6.594;2023-05-23T10:59:40;13.27;;;4.32;;
22470;SDS011;11402;51.374;6.594;2023-05-23T11:02:13;9.32;;;4.10;;
22470;SDS011;11402;51.374;6.594;2023-05-23T11:04:42;9.52;;;3.92;;
22470;SDS011;11402;51.374;6.594;2023-05-23T11:07:50;8.65;;;3.97;;
22470;SDS011;11402;51.374;6.594;2023-05-23T11:10:09;12.35;;;4.43;;
22470;SDS011;11402;51.374;6.594;2023-05-23T11:12:39;11.90;;;3.60;;
22470;SDS011;11402;51.374;6.594;2023-05-23T11:17:47;8.98;;;3.30;;
22470;SDS011;11402;51.374;6.594;2023-05-23T11:20:21;13.77;;;3.53;;
22470;SDS011;11402;51.374;6.594;2023-05-23T11:23:00;9.85;;;3.50;;
22470;SDS011;11402;51.374;6.594;2023-05-23T11:25:40;12.13;;;3.50;;
22470;SDS011;11402;51.374;6.594;2023-05-23T11:28:19;12.02;;;4.05;;
22470;SDS011;11402;51.374;6.594;2023-05-23T11:30:48;12.63;;;3.88;;
22470;SDS011;11402;51.374;6.594;2023-05-23T11:33:14;12.40;;;3.63;;
22470;SDS011;11402;51.374;6.594;2023-05-23T11:35:44;14.07;;;4.82;;
22470;SDS011;11402;51.374;6.594;2023-05-23T11:38:12;12.15;;;3.78;;
22470;SDS011;11402;51.374;6.594;2023-05-23T11:40:39;12.45;;;4.47;;
22470;SDS011;11402;51.374;6.594;2023-05-23T11:43:09;16.27;;;4.18;;
22470;SDS011;11402;51.374;6.594;2023-05-23T11:45:39;14.48;;;4.38;;
22470;SDS011;11402;51.374;6.594;2023-05-23T11:48:12;12.77;;;3.60;;
22470;SDS011;11402;51.374;6.594;2023-05-23T11:50:46;14.35;;;3.63;;
22470;SDS011;11402;51.374;6.594;2023-05-23T11:53:16;12.10;;;3.80;;
22470;SDS011;11402;51.374;6.594;2023-05-23T11:55:52;13.10;;;4.07;;
22470;SDS011;11402;51.374;6.594;2023-05-23T11:58:26;14.25;;;3.90;;
22470;SDS011;11402;51.374;6.594;2023-05-23T12:01:02;12.27;;;4.22;;
22470;SDS011;11402;51.374;6.594;2023-05-23T12:03:43;10.48;;;3.20;;
22470;SDS011;11402;51.374;6.594;2023-05-23T12:06:19;11.15;;;4.00;;
22470;SDS011;11402;51.374;6.594;2023-05-23T12:08:46;13.90;;;3.50;;
22470;SDS011;11402;51.374;6.594;2023-05-23T12:11:12;13.43;;;4.00;;
22470;SDS011;11402;51.374;6.594;2023-05-23T12:13:39;16.30;;;4.10;;
22470;SDS011;11402;51.374;6.594;2023-05-23T12:16:06;12.10;;;4.07;;
22470;SDS011;11402;51.374;6.594;2023-05-23T12:18:32;13.23;;;3.67;;
22470;SDS011;11402;51.374;6.594;2023-05-23T12:21:04;12.50;;;3.25;;
22470;SDS011;11402;51.374;6.594;2023-05-23T12:23:32;11.68;;;3.78;;
22470;SDS011;11402;51.374;6.594;2023-05-23T12:25:58;12.95;;;3.75;;
22470;SDS011;11402;51.374;6.594;2023-05-23T12:28:39;12.68;;;3.92;;
22470;SDS011;11402;51.374;6.594;2023-05-23T12:31:17;12.07;;;3.55;;
22470;SDS011;11402;51.374;6.594;2023-05-23T12:33:45;13.48;;;3.65;;
22470;SDS011;11402;51.374;6.594;2023-05-23T12:36:12;15.48;;;3.83;;
22470;SDS011;11402;51.374;6.594;2023-05-23T12:38:48;9.02;;;3.50;;
22470;SDS011;11402;51.374;6.594;2023-05-23T12:41:14;13.30;;;3.97;;
22470;SDS011;11402;51.374;6.594;2023-05-23T12:43:51;12.32;;;3.97;;
22470;SDS011;11402;51.374;6.594;2023-05-23T12:46:19;14.85;;;3.63;;
22470;SDS011;11402;51.374;6.594;2023-05-23T12:48:46;11.98;;;3.55;;
22470;SDS011;11402;51.374;6.594;2023-05-23T12:51:12;14.13;;;3.92;;
22470;SDS011;11402;51.374;6.594;2023-05-23T12:53:37;12.75;;;4.25;;
22470;SDS011;11402;51.374;6.594;2023-05-23T12:56:04;17.30;;;4.00;;
22470;SDS011;11402;51.374;6.594;2023-05-23T12:58:29;10.55;;;3.55;;
22470;SDS011;11402;51.374;6.594;2023-05-23T13:00:56;11.60;;;3.63;;
22470;SDS011;11402;51.374;6.594;2023-05-23T13:03:21;16.67;;;4.30;;
22470;SDS011;11402;51.374;6.594;2023-05-23T13:05:47;13.50;;;3.72;;
22470;SDS011;11402;51.374;6.594;2023-05-23T13:08:13;16.30;;;4.20;;
22470;SDS011;11402;51.374;6.594;2023-05-23T13:10:38;12.43;;;3.90;;
22470;SDS011;11402;51.374;6.594;2023-05-23T13:13:04;15.02;;;4.22;;
22470;SDS011;11402;51.374;6.594;2023-05-23T13:15:30;14.82;;;3.95;;
22470;SDS011;11402;51.374;6.594;2023-05-23T13:17:56;14.43;;;3.90;;
22470;SDS011;11402;51.374;6.594;2023-05-23T13:20:22;17.77;;;4.43;;
22470;SDS011;11402;51.374;6.594;2023-05-23T13:22:47;9.82;;;4.00;;
22470;SDS011;11402;51.374;6.594;2023-05-23T13:25:13;14.30;;;3.92;;
22470;SDS011;11402;51.374;6.594;2023-05-23T13:27:39;17.17;;;3.97;;
22470;SDS011;11402;51.374;6.594;2023-05-23T13:30:05;10.98;;;3.22;;
22470;SDS011;11402;51.374;6.594;2023-05-23T13:32:32;13.18;;;3.95;;
22470;SDS011;11402;51.374;6.594;2023-05-23T13:34:57;13.23;;;4.00;;
22470;SDS011;11402;51.374;6.594;2023-05-23T13:37:23;10.63;;;3.55;;
22470;SDS011;11402;51.374;6.594;2023-05-23T13:39:48;13.85;;;3.28;;
22470;SDS011;11402;51.374;6.594;2023-05-23T13:42:14;11.48;;;3.70;;
22470;SDS011;11402;51.374;6.594;2023-05-23T13:44:40;13.82;;;3.83;;
22470;SDS011;11402;51.374;6.594;2023-05-23T13:47:09;10.23;;;3.40;;
22470;SDS011;11402;51.374;6.594;2023-05-23T13:49:35;13.00;;;3.67;;
22470;SDS011;11402;51.374;6.594;2023-05-23T13:52:01;11.07;;;3.38;;
22470;SDS011;11402;51.374;6.594;2023-05-23T13:54:27;14.45;;;3.47;;
22470;SDS011;11402;51.374;6.594;2023-05-23T13:56:52;12.80;;;3.40;;
22470;SDS011;11402;51.374;6.594;2023-05-23T13:59:18;9.10;;;3.67;;
22470;SDS011;11402;51.374;6.594;2023-05-23T14:01:45;13.07;;;3.63;;
22470;SDS011;11402;51.374;6.594;2023-05-23T14:04:14;12.98;;;4.10;;
22470;SDS011;11402;51.374;6.594;2023-05-23T14:06:39;12.23;;;3.65;;
22470;SDS011;11402;51.374;6.594;2023-05-23T14:09:05;15.30;;;3.75;;
22470;SDS011;11402;51.374;6.594;2023-05-23T14:11:31;11.02;;;3.22;;
22470;SDS011;11402;51.374;6.594;2023-05-23T14:13:57;11.52;;;3.47;;
22470;SDS011;11402;51.374;6.594;2023-05-23T14:16:23;10.77;;;3.45;;
22470;SDS011;11402;51.374;6.594;2023-05-23T14:18:48;20.73;;;4.40;;
22470;SDS011;11402;51.374;6.594;2023-05-23T14:21:14;8.50;;;3.42;;
22470;SDS011;11402;51.374;6.594;2023-05-23T14:23:39;12.10;;;3.42;;
22470;SDS011;11402;51.374;6.594;2023-05-23T14:26:05;9.07;;;3.55;;
22470;SDS011;11402;51.374;6.594;2023-05-23T14:28:31;12.95;;;3.85;;
22470;SDS011;11402;51.374;6.594;2023-05-23T14:30:57;12.65;;;3.47;;
22470;SDS011;11402;51.374;6.594;2023-05-23T14:33:23;11.07;;;3.00;;
22470;SDS011;11402;51.374;6.594;2023-05-23T14:35:49;12.50;;;3.25;;
22470;SDS011;11402;51.374;6.594;2023-05-23T14:38:15;16.17;;;3.50;;
22470;SDS011;11402;51.374;6.594;2023-05-23T14:40:42;11.63;;;3.30;;
22470;SDS011;11402;51.374;6.594;2023-05-23T14:43:08;11.00;;;3.33;;
22470;SDS011;11402;51.374;6.594;2023-05-23T14:45:34;12.32;;;3.40;;
22470;SDS011;11402;51.374;6.594;2023-05-23T14:48:00;12.93;;;3.42;;
22470;SDS011;11402;51.374;6.594;2023-05-23T14:50:26;10.43;;;3.33;;
22470;SDS011;11402;51.374;6.594;2023-05-23T14:52:52;8.23;;;3.00;;
22470;SDS011;11402;51.374;6.594;2023-05-23T14:55:18;14.63;;;3.50;;
22470;SDS011;11402;51.374;6.594;2023-05-23T14:57:44;12.07;;;3.50;;
22470;SDS011;11402;51.374;6.594;2023-05-23T15:00:10;17.33;;;3.85;;
22470;SDS011;11402;51.374;6.594;2023-05-23T15:02:36;12.68;;;3.40;;
22470;SDS011;11402;51.374;6.594;2023-05-23T15:05:02;12.25;;;3.00;;
22470;SDS011;11402;51.374;6.594;2023-05-23T15:07:28;12.07;;;3.22;;